Time;durP1;ratioP1;P1;durP2;ratioP2;P2;SDS_P1;SDS_P2;PMS_P1;PMS_P2;Temp;Humidity;BMP_temperature;BMP_pressure;BME280_temperature;BME280_humidity;BME280_pressure;Samples;Min_cycle;Max_cycle;Signal;HPM_P1;HPM_P2
2023/08/13 00:00:31;;;;;;;13.13;8.03;;;;;;;21.79;68.35;100445.80;1723693;82;21422;-78
2023/08/13 00:03:37;;;;;;;12.10;7.35;;;;;;;21.88;68.10;100442.92;1715143;83;21343;-78
2023/08/13 00:06:44;;;;;;;15.20;7.58;;;;;;;22.08;67.16;100446.65;1715060;83;21687;-78
2023/08/13 00:09:52;;;;;;;11.75;7.65;;;;;;;21.98;67.22;100436.70;1716570;83;21350;-78
2023/08/13 00:13:01;;;;;;;14.23;8.30;;;;;;;21.94;67.32;100436.34;1716389;83;21370;-78
2023/08/13 00:16:06;;;;;;;14.70;7.92;;;;;;;21.86;67.62;100446.48;1716453;83;21308;-78
2023/08/13 00:19:12;;;;;;;13.00;7.90;;;;;;;21.79;67.79;100443.01;1716506;83;21336;-78
2023/08/13 00:22:19;;;;;;;10.30;8.28;;;;;;;21.79;67.92;100446.64;1715173;83;21344;-78
2023/08/13 00:25:25;;;;;;;12.80;8.55;;;;;;;21.75;68.08;100450.16;1685931;84;21354;-78
2023/08/13 00:28:31;;;;;;;13.03;9.13;;;;;;;21.64;68.26;100445.77;1703518;84;21329;-77
2023/08/13 00:31:36;;;;;;;17.30;8.48;;;;;;;21.66;68.35;100438.56;1702624;84;21409;-78
2023/08/13 00:34:42;;;;;;;12.90;8.45;;;;;;;21.71;68.16;100444.78;1701732;84;21326;-78
2023/08/13 00:37:49;;;;;;;12.25;8.95;;;;;;;21.51;68.77;100439.08;1703159;84;21349;-78
2023/08/13 00:40:55;;;;;;;17.50;8.75;;;;;;;21.48;68.87;100439.56;1703044;84;21360;-78
2023/08/13 00:44:02;;;;;;;12.88;8.65;;;;;;;21.41;69.15;100442.49;1702943;83;21227;-78
2023/08/13 00:47:08;;;;;;;12.25;7.75;;;;;;;21.33;69.12;100439.23;1704045;84;21357;-78
2023/08/13 00:50:14;;;;;;;15.55;7.53;;;;;;;21.34;69.04;100445.09;1703437;84;21321;-78
2023/08/13 00:53:20;;;;;;;14.68;7.70;;;;;;;21.26;69.04;100440.70;1702652;84;21364;-78
2023/08/13 00:56:27;;;;;;;10.90;7.92;;;;;;;21.25;68.95;100443.73;1703664;84;21927;-78
2023/08/13 00:59:32;;;;;;;15.78;7.92;;;;;;;21.44;68.46;100450.87;1703286;84;21967;-78
2023/08/13 01:02:32;;;;;;;10.77;8.23;;;;;;;21.48;68.09;100447.07;1702370;84;21369;-78
2023/08/13 01:06:04;;;;;;;10.70;8.75;;;;;;;21.39;68.25;100446.05;1703271;84;21635;-79
2023/08/13 01:09:15;;;;;;;12.93;8.18;;;;;;;21.68;67.43;100446.95;1702121;84;22524;-78
2023/08/13 01:12:29;;;;;;;11.03;7.83;;;;;;;21.78;67.04;100448.25;1696881;84;21337;-78
2023/08/13 01:15:40;;;;;;;14.05;8.40;;;;;;;21.54;67.57;100447.47;1703289;83;21907;-78
2023/08/13 01:18:46;;;;;;;16.12;8.38;;;;;;;21.40;67.92;100450.52;1703509;84;21326;-78
2023/08/13 01:21:53;;;;;;;12.63;8.85;;;;;;;21.44;68.04;100446.70;1702969;84;21357;-78
2023/08/13 01:24:59;;;;;;;13.45;8.00;;;;;;;21.33;68.52;100448.42;1703799;84;21238;-78
2023/08/13 01:28:30;;;;;;;17.27;9.48;;;;;;;19.56;73.48;100448.13;1704376;84;21862;-78
2023/08/13 01:31:39;;;;;;;12.35;7.80;;;;;;;19.64;74.09;100441.77;1732234;83;22102;-78
2023/08/13 01:34:45;;;;;;;10.90;8.20;;;;;;;20.24;72.44;100442.34;1711015;84;21307;-78
2023/08/13 01:37:50;;;;;;;17.10;7.72;;;;;;;20.14;72.49;100445.69;1723745;83;21363;-78
2023/08/13 01:40:57;;;;;;;14.80;10.32;;;;;;;20.30;72.05;100451.64;1711191;84;21298;-78
2023/08/13 01:44:03;;;;;;;20.60;11.08;;;;;;;20.16;72.49;100456.00;1721635;83;21343;-78
2023/08/13 01:47:09;;;;;;;15.63;9.55;;;;;;;20.28;72.16;100456.57;1703332;84;21333;-78
2023/08/13 01:50:16;;;;;;;14.43;8.95;;;;;;;20.26;72.23;100454.59;1703215;84;21356;-78
2023/08/13 01:53:23;;;;;;;15.43;9.93;;;;;;;20.12;72.54;100457.55;1702292;84;21360;-78
2023/08/13 01:56:29;;;;;;;15.63;8.90;;;;;;;20.15;72.26;100461.26;1703225;84;21337;-78
2023/08/13 01:59:34;;;;;;;12.28;9.75;;;;;;;20.08;72.51;100459.10;1703233;83;21341;-78
2023/08/13 02:02:42;;;;;;;11.95;8.63;;;;;;;20.27;71.95;100470.16;1702855;84;21349;-78
2023/08/13 02:05:48;;;;;;;12.73;8.45;;;;;;;20.23;71.95;100473.10;1703388;84;21321;-79
2023/08/13 02:08:53;;;;;;;20.25;10.10;;;;;;;20.44;71.09;100473.97;1702838;84;21353;-78
2023/08/13 02:12:00;;;;;;;12.68;9.18;;;;;;;20.36;71.23;100474.30;1703203;84;21880;-78
2023/08/13 02:15:06;;;;;;;16.40;9.68;;;;;;;20.14;72.04;100476.78;1703566;84;21944;-78
2023/08/13 02:18:13;;;;;;;19.82;10.15;;;;;;;20.15;72.04;100473.75;1703189;84;21349;-78
2023/08/13 02:21:19;;;;;;;14.95;9.63;;;;;;;20.19;71.99;100479.69;1703161;84;21959;-78
2023/08/13 02:24:25;;;;;;;14.65;9.58;;;;;;;20.06;72.58;100484.88;1702659;84;21356;-78
2023/08/13 02:27:31;;;;;;;11.60;9.68;;;;;;;20.09;72.54;100487.71;1706873;84;21913;-78
2023/08/13 02:30:36;;;;;;;14.50;9.18;;;;;;;20.20;72.09;100486.09;1708607;83;21301;-78
2023/08/13 02:33:43;;;;;;;16.67;8.95;;;;;;;20.11;72.27;100492.51;1707465;84;21328;-78
2023/08/13 02:36:48;;;;;;;14.23;9.20;;;;;;;19.36;74.66;100494.13;1707629;84;21323;-78
2023/08/13 02:39:53;;;;;;;12.40;10.50;;;;;;;19.54;74.33;100503.02;1708374;84;21376;-78
2023/08/13 02:43:01;;;;;;;15.03;9.83;;;;;;;19.63;74.22;100503.05;1708330;82;21356;-78
2023/08/13 02:46:06;;;;;;;23.75;10.32;;;;;;;19.78;73.87;100502.11;1707698;83;21982;-78
2023/08/13 02:49:12;;;;;;;11.12;9.48;;;;;;;19.76;74.11;100507.57;1707307;84;21326;-78
2023/08/13 02:52:18;;;;;;;12.60;8.45;;;;;;;20.10;73.19;100505.55;1706027;84;21328;-78
2023/08/13 02:55:25;;;;;;;13.10;9.00;;;;;;;19.74;73.67;100507.81;1706435;84;21364;-78
2023/08/13 02:58:32;;;;;;;11.12;8.20;;;;;;;19.39;75.77;100511.17;1737206;82;21304;-78
2023/08/13 03:01:38;;;;;;;12.82;9.05;;;;;;;20.01;74.16;100513.89;1738240;82;21339;-78
2023/08/13 03:04:45;;;;;;;14.30;9.58;;;;;;;20.32;73.46;100511.96;1710216;84;21350;-78
2023/08/13 03:07:51;;;;;;;19.17;8.48;;;;;;;20.43;73.21;100512.56;1724625;83;22034;-78
2023/08/13 03:10:57;;;;;;;11.43;7.55;;;;;;;20.47;73.62;100519.38;1709981;84;21937;-78
2023/08/13 03:14:04;;;;;;;15.03;7.65;;;;;;;20.63;73.35;100512.30;1723441;83;21316;-78
2023/08/13 03:17:09;;;;;;;15.78;8.68;;;;;;;20.90;72.15;100514.95;1710978;84;21633;-78
2023/08/13 03:20:16;;;;;;;13.65;8.85;;;;;;;21.26;70.92;100520.53;1724447;83;21339;-78
2023/08/13 03:23:21;;;;;;;14.13;9.05;;;;;;;21.23;71.28;100521.03;1711259;84;21338;-78
2023/08/13 03:26:26;;;;;;;16.73;9.13;;;;;;;21.54;70.23;100527.63;1722676;83;21336;-78
2023/08/13 03:29:32;;;;;;;15.85;9.45;;;;;;;21.75;69.74;100530.34;1732689;82;21323;-78
2023/08/13 03:32:39;;;;;;;11.85;9.30;;;;;;;22.07;68.80;100531.31;1727739;83;21240;-78
2023/08/13 03:35:48;;;;;;;11.03;8.98;;;;;;;22.24;68.45;100530.84;1727769;83;21701;-78
2023/08/13 03:38:53;;;;;;;13.65;7.67;;;;;;;22.26;68.33;100530.06;1726272;83;21351;-78
2023/08/13 03:42:00;;;;;;;10.53;8.43;;;;;;;22.53;67.65;100531.67;1726245;83;21354;-78
2023/08/13 03:45:07;;;;;;;12.15;8.45;;;;;;;22.67;67.43;100535.84;1714172;83;21372;-78
2023/08/13 03:48:13;;;;;;;14.07;11.33;;;;;;;22.86;67.39;100537.02;1747577;82;21299;-78
2023/08/13 03:51:19;;;;;;;12.75;8.13;;;;;;;22.99;67.46;100543.70;1749158;82;21855;-78
2023/08/13 03:54:25;;;;;;;13.05;8.53;;;;;;;22.94;67.80;100540.27;1748567;82;21657;-78
2023/08/13 03:57:31;;;;;;;13.65;7.80;;;;;;;23.46;66.92;100546.13;1749328;82;21286;-78
2023/08/13 04:00:36;;;;;;;15.85;9.13;;;;;;;23.45;67.06;100550.03;1770933;80;21303;-78
2023/08/13 04:03:42;;;;;;;13.78;9.30;;;;;;;23.66;66.81;100541.42;1778462;80;21807;-78
2023/08/13 04:06:49;;;;;;;14.87;10.43;;;;;;;23.82;66.69;100555.08;1779929;80;21303;-78
2023/08/13 04:09:55;;;;;;;18.10;11.25;;;;;;;24.03;66.43;100559.82;1742701;82;21302;-78
2023/08/13 04:13:17;;;;;;;18.57;11.22;;;;;;;24.20;66.92;100555.02;1875727;76;22720;-78
2023/08/13 04:16:24;;;;;;;33.35;14.80;;;;;;;24.23;67.18;100561.50;1749038;82;21981;-78
2023/08/13 04:19:30;;;;;;;25.12;13.55;;;;;;;24.37;68.53;100563.90;1745771;82;21629;-78
2023/08/13 04:22:36;;;;;;;22.85;10.88;;;;;;;24.74;68.74;100557.05;1751579;82;21874;-78
2023/08/13 04:25:41;;;;;;;24.70;11.40;;;;;;;24.92;69.08;100550.23;1750951;82;21335;-78
2023/08/13 04:28:47;;;;;;;23.52;12.78;;;;;;;25.07;68.75;100557.38;1781507;80;21318;-78
2023/08/13 04:31:54;;;;;;;15.90;10.15;;;;;;;25.33;67.89;100554.25;1781385;80;21358;-78
2023/08/13 04:35:01;;;;;;;17.85;9.43;;;;;;;25.46;67.16;100556.60;1783091;80;21299;-78
2023/08/13 04:38:07;;;;;;;15.23;9.38;;;;;;;25.55;65.44;100556.95;1762911;80;21342;-78
2023/08/13 04:41:13;;;;;;;16.23;8.90;;;;;;;25.63;63.75;100553.61;1752045;82;21315;-78
2023/08/13 04:44:18;;;;;;;15.32;9.90;;;;;;;25.82;62.44;100551.80;1758523;80;21292;-78
2023/08/13 04:47:23;;;;;;;15.95;9.45;;;;;;;25.99;62.17;100552.46;1752263;82;21311;-78
2023/08/13 04:50:30;;;;;;;18.73;10.20;;;;;;;26.30;61.21;100553.45;1764024;81;21321;-78
2023/08/13 04:53:35;;;;;;;17.20;10.15;;;;;;;26.47;60.92;100550.44;1778471;80;21346;-78
2023/08/13 04:56:42;;;;;;;22.32;11.05;;;;;;;26.60;60.27;100558.89;1779923;80;21291;-78
2023/08/13 04:59:48;;;;;;;19.12;8.73;;;;;;;26.91;59.09;100558.37;1732978;82;21304;-78
2023/08/13 05:02:55;;;;;;;11.00;7.30;;;;;;;27.07;57.32;100558.68;1742515;82;21977;-78
2023/08/13 05:06:01;;;;;;;11.70;6.85;;;;;;;27.11;55.51;100562.65;1733195;82;21330;-78
2023/08/13 05:09:08;;;;;;;21.55;7.92;;;;;;;27.37;54.94;100564.03;1722288;83;21342;-78
2023/08/13 05:12:15;;;;;;;12.98;7.78;;;;;;;27.64;53.09;100565.14;1722385;83;21395;-78
2023/08/13 05:15:23;;;;;;;10.58;7.47;;;;;;;27.47;53.32;100571.88;1709445;83;21303;-78
2023/08/13 05:18:28;;;;;;;16.37;8.05;;;;;;;27.48;51.94;100568.54;1712331;83;21633;-78
2023/08/13 05:21:34;;;;;;;15.90;8.15;;;;;;;27.41;52.04;100570.78;1713843;83;21307;-78
2023/08/13 05:24:39;;;;;;;15.38;8.10;;;;;;;27.43;52.58;100569.92;1713464;83;21644;-78
2023/08/13 05:27:46;;;;;;;9.88;7.17;;;;;;;27.54;52.11;100573.58;1713060;83;21334;-78
2023/08/13 05:30:52;;;;;;;16.77;8.05;;;;;;;27.43;52.74;100565.70;1712582;83;21304;-78
2023/08/13 05:33:59;;;;;;;11.43;8.28;;;;;;;27.74;52.37;100568.79;1717381;83;21603;-78
2023/08/13 05:37:05;;;;;;;13.80;7.47;;;;;;;27.70;53.57;100573.83;1717146;83;21335;-78
2023/08/13 05:40:10;;;;;;;12.70;6.00;;;;;;;28.11;52.71;100573.19;1717206;83;21923;-78
2023/08/13 05:43:17;;;;;;;9.78;5.47;;;;;;;28.42;50.80;100573.08;1716954;83;21914;-78
2023/08/13 05:46:23;;;;;;;11.28;5.20;;;;;;;26.44;54.40;100570.61;1707333;84;21332;-78
2023/08/13 05:49:29;;;;;;;12.93;5.85;;;;;;;25.80;56.64;100566.66;1707146;84;21310;-78
2023/08/13 05:52:36;;;;;;;11.65;5.65;;;;;;;25.99;57.33;100560.88;1707399;84;21322;-78
2023/08/13 05:55:43;;;;;;;8.53;5.60;;;;;;;26.07;57.57;100563.16;1707483;84;21925;-78
2023/08/13 05:58:49;;;;;;;13.03;6.45;;;;;;;26.25;58.08;100570.22;1706715;84;21365;-78
2023/08/13 06:01:55;;;;;;;13.00;6.75;;;;;;;26.52;57.83;100570.08;1689031;82;21314;-78
2023/08/13 06:05:02;;;;;;;17.07;6.58;;;;;;;26.44;58.20;100570.08;1709217;84;21942;-78
2023/08/13 06:08:08;;;;;;;10.58;6.47;;;;;;;26.94;56.64;100572.69;1705878;84;22035;-78
2023/08/13 06:11:14;;;;;;;8.28;5.50;;;;;;;27.41;55.55;100570.21;1705622;84;21330;-78
2023/08/13 06:14:20;;;;;;;7.97;5.22;;;;;;;27.53;55.04;100574.16;1714588;82;21861;-78
2023/08/13 06:17:26;;;;;;;11.53;5.00;;;;;;;27.64;54.05;100574.41;1699466;84;21906;-78
2023/08/13 06:20:33;;;;;;;13.83;5.87;;;;;;;27.34;53.97;100568.83;1696484;84;21343;-78
2023/08/13 06:23:39;;;;;;;11.33;5.30;;;;;;;27.49;54.59;100571.63;1696114;84;21354;-78
2023/08/13 06:26:45;;;;;;;10.75;5.20;;;;;;;27.64;53.69;100575.81;1696702;84;21358;-78
2023/08/13 06:29:51;;;;;;;11.35;5.17;;;;;;;27.75;53.25;100579.47;1707850;83;22008;-78
2023/08/13 06:32:58;;;;;;;13.43;5.65;;;;;;;27.87;53.04;100577.77;1725156;83;21327;-78
2023/08/13 06:36:05;;;;;;;12.30;5.42;;;;;;;28.16;53.00;100584.41;1725211;83;21330;-78
2023/08/13 06:39:11;;;;;;;11.03;5.03;;;;;;;28.43;50.61;100581.25;1725105;83;21315;-78
2023/08/13 06:42:16;;;;;;;9.63;5.40;;;;;;;28.62;49.53;100588.47;1724569;83;21957;-78
2023/08/13 06:45:26;;;;;;;10.08;5.92;;;;;;;28.84;49.19;100581.56;1723891;83;21343;-78
2023/08/13 06:48:30;;;;;;;12.30;5.08;;;;;;;28.95;49.50;100580.41;1725379;83;21314;-78
2023/08/13 06:51:38;;;;;;;9.33;4.72;;;;;;;28.74;49.63;100581.91;1725206;83;21358;-78
2023/08/13 06:54:43;;;;;;;10.08;4.90;;;;;;;28.95;49.16;100574.21;1724606;83;21377;-78
2023/08/13 06:57:51;;;;;;;6.58;4.55;;;;;;;28.90;49.82;100588.30;1724017;83;21375;-78
2023/08/13 07:00:57;;;;;;;7.33;4.10;;;;;;;29.15;49.64;100580.25;1723640;83;21346;-78
2023/08/13 07:04:03;;;;;;;8.40;4.10;;;;;;;29.31;47.66;100579.55;1724765;83;21362;-78
2023/08/13 07:07:09;;;;;;;7.28;3.75;;;;;;;29.52;46.88;100581.63;1723784;83;22693;-78
2023/08/13 07:10:42;;;;;;;8.85;3.60;;;;;;;29.41;46.50;100579.48;1725233;83;21354;-78
2023/08/13 07:13:55;;;;;;;9.55;4.55;;;;;;;29.61;46.40;100581.87;1730423;83;21340;-78
2023/08/13 07:16:57;;;;;;;8.10;4.28;;;;;;;29.82;45.66;100575.44;1730747;83;21317;-78
2023/08/13 07:20:09;;;;;;;8.40;3.90;;;;;;;28.97;47.25;100580.38;1731082;83;21297;-78
2023/08/13 07:23:14;;;;;;;7.65;4.53;;;;;;;29.06;46.91;100580.60;1730882;83;21948;-78
2023/08/13 07:26:20;;;;;;;8.23;4.10;;;;;;;29.67;46.52;100588.55;1730599;83;21971;-78
2023/08/13 07:29:25;;;;;;;11.28;4.72;;;;;;;29.67;46.52;100588.55;1735662;82;21294;-78
2023/08/13 07:32:31;;;;;;;10.48;5.05;;;;;;;29.75;46.78;100585.09;1720136;83;21317;-78
2023/08/13 07:35:37;;;;;;;6.72;4.55;;;;;;;29.86;46.74;100581.59;1749383;82;21243;-78
2023/08/13 07:38:43;;;;;;;14.83;4.70;;;;;;;29.82;47.36;100580.50;1723281;82;21334;-78
2023/08/13 07:41:49;;;;;;;15.45;4.62;;;;;;;29.92;46.52;100586.60;1719890;83;21334;-77
2023/08/13 07:44:55;;;;;;;14.33;4.50;;;;;;;29.88;46.38;100575.11;1710206;83;21304;-78
2023/08/13 07:48:01;;;;;;;5.87;4.15;;;;;;;30.02;45.94;100578.89;1698550;84;21654;-78
2023/08/13 07:51:06;;;;;;;6.05;3.55;;;;;;;30.08;43.94;100578.83;1698257;84;21813;-78
2023/08/13 07:54:12;;;;;;;7.15;3.40;;;;;;;30.15;43.64;100582.98;1698080;84;21363;-78
2023/08/13 07:57:19;;;;;;;6.75;2.95;;;;;;;30.14;42.43;100581.31;1698026;84;21358;-78
2023/08/13 08:00:26;;;;;;;6.37;3.85;;;;;;;30.34;41.26;100580.78;1696978;84;21882;-78
2023/08/13 08:03:32;;;;;;;6.80;4.08;;;;;;;30.33;40.61;100579.11;1698347;84;21360;-78
2023/08/13 08:06:38;;;;;;;7.95;3.60;;;;;;;30.48;40.59;100579.73;1698637;84;21344;-78
2023/08/13 08:09:44;;;;;;;5.42;2.98;;;;;;;30.48;41.25;100578.91;1698592;84;21331;-78
2023/08/13 08:12:51;;;;;;;4.72;3.52;;;;;;;30.37;42.25;100573.14;1691799;84;21205;-78
2023/08/13 08:15:57;;;;;;;5.10;3.45;;;;;;;30.41;41.55;100573.64;1682596;85;22009;-78
2023/08/13 08:19:04;;;;;;;5.55;3.37;;;;;;;30.61;40.63;100571.67;1683513;85;21344;-78
2023/08/13 08:22:10;;;;;;;71.17;13.53;;;;;;;30.65;38.52;100575.00;1683439;85;22651;-78
2023/08/13 08:25:17;;;;;;;16.95;5.72;;;;;;;30.65;39.25;100572.75;1683133;85;21360;-78
2023/08/13 08:28:23;;;;;;;17.52;6.00;;;;;;;30.31;37.95;100572.94;1682753;85;21926;-77
2023/08/13 08:31:29;;;;;;;17.35;4.85;;;;;;;30.31;37.95;100572.94;1683428;85;21868;-78
2023/08/13 08:34:36;;;;;;;162.95;34.98;;;;;;;30.31;37.79;100570.95;1683593;85;21324;-78
2023/08/13 08:37:43;;;;;;;30.20;7.85;;;;;;;30.40;38.52;100572.55;1683036;84;21934;-78
2023/08/13 08:40:53;;;;;;;9.53;3.65;;;;;;;30.48;40.02;100567.03;1683521;85;21340;-78
2023/08/13 08:43:59;;;;;;;3.97;2.93;;;;;;;30.27;39.29;100567.05;1683003;85;21416;-77
2023/08/13 08:47:06;;;;;;;5.67;2.62;;;;;;;30.38;36.81;100566.34;1682296;85;21356;-78
2023/08/13 08:50:13;;;;;;;6.70;3.05;;;;;;;30.43;35.45;100568.52;1682477;85;21363;-77
2023/08/13 08:53:23;;;;;;;7.90;3.10;;;;;;;30.36;36.93;100561.59;1682219;85;21364;-76
2023/08/13 08:56:33;;;;;;;4.97;3.37;;;;;;;30.30;38.10;100567.84;1668373;85;21356;-77
2023/08/13 08:59:39;;;;;;;8.20;3.37;;;;;;;30.50;38.85;100569.58;1682005;85;21348;-76
2023/08/13 09:02:45;;;;;;;8.13;3.47;;;;;;;30.50;38.85;100569.58;1683454;85;21913;-76
2023/08/13 09:05:51;;;;;;;4.95;3.65;;;;;;;30.67;38.33;100566.22;1683194;85;21895;-77
2023/08/13 09:09:00;;;;;;;4.83;3.22;;;;;;;30.72;39.70;100556.30;1684716;84;21218;-77
2023/08/13 09:12:06;;;;;;;8.23;4.10;;;;;;;30.97;38.88;100562.14;1684010;85;21317;-77
2023/08/13 09:15:19;;;;;;;7.47;2.87;;;;;;;30.76;38.79;100566.67;1674505;84;21328;-77
2023/08/13 09:18:24;;;;;;;8.50;3.58;;;;;;;30.76;39.04;100562.44;1651431;85;21297;-77
2023/08/13 09:21:33;;;;;;;5.50;3.25;;;;;;;30.88;38.39;100569.63;1643699;87;21357;-77
2023/08/13 09:24:46;;;;;;;7.33;3.30;;;;;;;31.07;38.17;100560.56;1643401;87;21909;-77
2023/08/13 09:27:52;;;;;;;4.47;3.12;;;;;;;31.07;37.89;100559.15;1643414;87;21321;-77
2023/08/13 09:30:57;;;;;;;6.72;3.10;;;;;;;31.42;37.09;100554.06;1668510;85;21333;-77
2023/08/13 09:34:03;;;;;;;7.85;2.80;;;;;;;31.39;37.87;100554.70;1671382;85;21345;-77
2023/08/13 09:37:09;;;;;;;6.42;2.50;;;;;;;31.22;34.92;100560.30;1672159;84;21349;-77
2023/08/13 09:40:15;;;;;;;8.28;2.62;;;;;;;31.02;34.43;100565.72;1672991;85;21364;-77
2023/08/13 09:43:23;;;;;;;11.35;3.10;;;;;;;31.13;33.51;100560.73;1673799;85;21352;-77
2023/08/13 09:46:28;;;;;;;5.72;3.02;;;;;;;31.00;33.31;100562.34;1673325;85;21345;-77
2023/08/13 09:49:38;;;;;;;5.95;2.67;;;;;;;30.96;34.22;100564.67;1674035;85;21342;-77
2023/08/13 09:52:43;;;;;;;4.55;3.05;;;;;;;30.96;34.70;100559.89;1673494;85;21348;-77
2023/08/13 09:55:58;;;;;;;5.67;2.80;;;;;;;30.95;34.14;100557.36;1673415;85;21881;-77
2023/08/13 09:58:52;;;;;;;8.88;2.62;;;;;;;30.87;34.83;100550.44;1673541;85;21360;-77
2023/08/13 10:01:38;;;;;;;7.97;2.70;;;;;;;30.86;33.83;100552.13;1673405;85;21329;-77
2023/08/13 10:04:30;;;;;;;4.10;3.05;;;;;;;30.86;33.83;100552.13;1672279;85;21400;-77
2023/08/13 10:07:16;;;;;;;6.97;3.40;;;;;;;30.79;35.42;100552.53;1673046;85;21348;-77
2023/08/13 10:10:43;;;;;;;8.15;3.05;;;;;;;30.69;34.97;100556.89;1673294;85;21825;-77
2023/08/13 10:13:48;;;;;;;8.50;2.85;;;;;;;30.59;33.60;100549.98;1672308;85;21868;-77
2023/08/13 10:16:55;;;;;;;9.00;3.33;;;;;;;30.59;33.60;100549.98;1702145;84;21570;-77
2023/08/13 10:20:03;;;;;;;6.20;3.80;;;;;;;30.65;34.71;100546.77;1703394;84;21328;-77
2023/08/13 10:23:10;;;;;;;6.10;3.22;;;;;;;30.83;35.38;100548.53;1703430;84;22003;-77
2023/08/13 10:26:15;;;;;;;4.87;3.67;;;;;;;30.89;35.42;100551.53;1703321;84;21345;-77
2023/08/13 10:29:26;;;;;;;7.17;3.65;;;;;;;30.93;35.30;100549.78;1699964;84;21900;-78
2023/08/13 10:32:32;;;;;;;5.45;3.90;;;;;;;31.00;35.42;100558.69;1687005;85;21632;-78
2023/08/13 10:35:40;;;;;;;10.60;3.72;;;;;;;30.64;35.88;100553.57;1721097;83;21314;-77
2023/08/13 10:38:45;;;;;;;4.55;3.45;;;;;;;30.51;35.62;100548.09;1687187;83;21345;-77
2023/08/13 10:41:52;;;;;;;8.00;3.20;;;;;;;30.57;35.32;100550.27;1720791;83;21326;-78
2023/08/13 10:44:58;;;;;;;7.03;3.37;;;;;;;30.66;34.78;100547.03;1694991;84;21324;-77
2023/08/13 10:48:07;;;;;;;6.12;2.87;;;;;;;30.46;33.37;100545.35;1682850;84;21320;-77
2023/08/13 10:51:13;;;;;;;8.48;3.50;;;;;;;30.46;33.37;100545.35;1703284;84;21670;-77
2023/08/13 10:54:20;;;;;;;7.55;3.05;;;;;;;30.49;34.32;100539.69;1703401;84;21703;-78
2023/08/13 10:57:26;;;;;;;6.33;3.20;;;;;;;30.55;33.99;100546.35;1682019;84;21376;-78
2023/08/13 11:00:33;;;;;;;4.62;3.00;;;;;;;30.70;33.95;100548.68;1691484;84;21340;-78
2023/08/13 11:03:39;;;;;;;4.95;2.50;;;;;;;30.67;34.06;100550.12;1720798;83;21318;-77
2023/08/13 11:06:45;;;;;;;7.60;2.72;;;;;;;30.57;31.96;100547.45;1687549;85;21329;-77
2023/08/13 11:09:51;;;;;;;3.60;2.75;;;;;;;30.57;31.96;100547.45;1720953;83;21310;-78
2023/08/13 11:12:57;;;;;;;4.90;2.85;;;;;;;30.24;34.01;100545.91;1686850;85;21195;-78
2023/08/13 11:16:03;;;;;;;12.75;3.20;;;;;;;30.24;34.01;100545.91;1689570;83;21354;-78
2023/08/13 11:19:12;;;;;;;4.58;2.90;;;;;;;30.45;33.19;100545.66;1675454;85;21401;-77
2023/08/13 11:22:18;;;;;;;4.70;2.80;;;;;;;30.45;33.19;100545.66;1669466;86;21365;-77
2023/08/13 11:25:22;;;;;;;7.80;3.30;;;;;;;30.58;32.44;100544.88;1668171;86;21369;-78
2023/08/13 11:28:35;;;;;;;4.25;2.92;;;;;;;30.45;32.70;100542.84;1668784;86;21238;-78
2023/08/13 11:31:43;;;;;;;7.22;3.87;;;;;;;30.36;33.51;100546.06;1667750;86;22003;-77
2023/08/13 11:34:49;;;;;;;6.47;3.40;;;;;;;30.40;34.82;100537.27;1669035;86;21357;-77
2023/08/13 11:37:55;;;;;;;8.78;3.92;;;;;;;30.39;35.51;100536.41;1668617;84;21360;-77
2023/08/13 11:41:02;;;;;;;7.75;3.60;;;;;;;30.42;34.67;100536.38;1669317;86;21218;-77
2023/08/13 11:44:10;;;;;;;10.43;3.40;;;;;;;30.42;36.15;100537.22;1667885;86;21341;-77
2023/08/13 11:47:15;;;;;;;5.50;3.42;;;;;;;30.46;36.76;100536.88;1668180;86;21328;-77
2023/08/13 11:50:31;;;;;;;3.98;2.95;;;;;;;30.36;36.20;100531.96;1669270;86;21294;-78
2023/08/13 11:53:39;;;;;;;5.92;3.40;;;;;;;30.45;36.51;100532.97;1669199;86;21317;-77
2023/08/13 11:56:52;;;;;;;7.10;3.30;;;;;;;30.45;36.68;100531.55;1650081;86;21285;-77
2023/08/13 11:59:59;;;;;;;7.35;3.33;;;;;;;30.56;36.16;100524.61;1668003;86;21324;-77
2023/08/13 12:03:04;;;;;;;5.67;2.87;;;;;;;30.45;36.35;100525.91;1668037;86;21325;-77
2023/08/13 12:06:10;;;;;;;5.90;3.12;;;;;;;30.44;36.06;100525.07;1669328;86;21297;-78
2023/08/13 12:09:15;;;;;;;7.05;3.08;;;;;;;30.36;36.56;100517.85;1649365;86;21317;-78
2023/08/13 12:12:21;;;;;;;5.72;3.55;;;;;;;29.90;37.62;100526.86;1650063;86;21975;-77
2023/08/13 12:15:31;;;;;;;9.75;3.42;;;;;;;29.74;36.96;100529.03;1669459;86;21865;-77
2023/08/13 12:18:37;;;;;;;6.33;3.40;;;;;;;29.63;37.13;100532.50;1668903;85;21332;-77
2023/08/13 12:21:44;;;;;;;5.10;2.92;;;;;;;29.48;36.04;100532.06;1655241;86;21917;-77
2023/08/13 12:24:50;;;;;;;4.37;3.40;;;;;;;29.48;36.45;100526.43;1669251;86;22543;-77
2023/08/13 12:28:02;;;;;;;3.83;3.00;;;;;;;29.48;36.49;100526.43;1655199;86;22557;-77
2023/08/13 12:31:07;;;;;;;6.67;2.90;;;;;;;29.53;36.63;100527.78;1652187;86;21254;-77
2023/08/13 12:34:13;;;;;;;9.33;2.90;;;;;;;29.60;37.18;100526.08;1655707;86;21351;-78
2023/08/13 12:37:18;;;;;;;3.77;2.75;;;;;;;29.78;37.04;100523.91;1649827;85;22029;-77
2023/08/13 12:40:24;;;;;;;4.58;3.15;;;;;;;29.88;36.31;100516.44;1651395;86;21277;-77
2023/08/13 12:43:29;;;;;;;5.50;2.83;;;;;;;29.92;35.34;100525.98;1652779;86;21290;-77
2023/08/13 12:46:35;;;;;;;4.45;3.02;;;;;;;29.92;34.99;100527.39;1656677;86;21271;-77
2023/08/13 12:49:42;;;;;;;6.67;3.42;;;;;;;29.63;35.59;100531.09;1667826;86;21366;-77
2023/08/13 12:52:49;;;;;;;4.97;3.00;;;;;;;29.71;34.03;100527.64;1627304;88;21358;-77
2023/08/13 12:55:55;;;;;;;9.13;3.33;;;;;;;29.87;32.88;100528.29;1641027;87;21232;-77
2023/08/13 12:59:00;;;;;;;4.80;3.35;;;;;;;29.88;34.19;100523.48;1603150;88;21410;-77
2023/08/13 13:02:05;;;;;;;6.83;3.20;;;;;;;29.98;33.43;100526.21;1655468;86;21354;-77
2023/08/13 13:05:10;;;;;;;4.78;2.72;;;;;;;29.87;34.04;100524.06;1669587;86;21305;-77
2023/08/13 13:08:16;;;;;;;4.62;3.00;;;;;;;29.92;33.62;100510.47;1655453;86;21361;-77
2023/08/13 13:11:23;;;;;;;6.85;3.10;;;;;;;29.89;34.17;100520.97;1669270;86;22197;-77
2023/08/13 13:14:28;;;;;;;6.55;3.33;;;;;;;29.84;34.50;100513.41;1655330;86;21328;-77
2023/08/13 13:17:34;;;;;;;5.55;2.95;;;;;;;29.97;34.65;100512.69;1668970;85;21348;-77
2023/08/13 13:20:39;;;;;;;4.10;2.70;;;;;;;30.27;34.25;100514.29;1696943;84;21375;-77
2023/08/13 13:23:46;;;;;;;11.48;3.00;;;;;;;30.25;34.00;100510.95;1698259;84;21883;-77
2023/08/13 13:26:52;;;;;;;5.33;2.58;;;;;;;30.20;34.71;100510.15;1698454;84;21339;-77
2023/08/13 13:29:58;;;;;;;4.12;2.98;;;;;;;30.27;35.78;100512.05;1697919;84;21357;-77
2023/08/13 13:33:05;;;;;;;5.40;3.20;;;;;;;30.27;35.78;100512.05;1698165;84;21647;-77
2023/08/13 13:36:10;;;;;;;6.78;3.00;;;;;;;30.28;37.15;100507.50;1698387;84;21346;-77
2023/08/13 13:39:17;;;;;;;4.78;3.05;;;;;;;29.21;37.04;100508.66;1698314;84;22646;-77
2023/08/13 13:42:22;;;;;;;3.70;3.20;;;;;;;29.21;37.04;100508.66;1698342;84;21905;-77
2023/08/13 13:45:29;;;;;;;6.30;2.80;;;;;;;29.44;36.32;100509.01;1677750;84;21348;-77
2023/08/13 13:48:35;;;;;;;4.25;2.92;;;;;;;29.56;36.61;100501.61;1668098;86;21857;-77
2023/08/13 13:51:42;;;;;;;3.27;2.92;;;;;;;29.56;36.61;100501.61;1668471;86;21344;-77
2023/08/13 13:54:50;;;;;;;4.87;3.30;;;;;;;29.68;36.92;100505.67;1669035;86;21665;-77
2023/08/13 13:57:55;;;;;;;4.95;3.10;;;;;;;29.66;36.28;100506.55;1668799;86;21368;-77
2023/08/13 14:01:01;;;;;;;5.08;2.87;;;;;;;29.26;38.19;100498.75;1694646;84;22560;-77
2023/08/13 14:04:07;;;;;;;8.70;2.90;;;;;;;29.26;38.19;100498.75;1697441;84;21683;-77
2023/08/13 14:07:14;;;;;;;5.10;2.70;;;;;;;29.26;38.45;100504.38;1697933;84;21997;-77
2023/08/13 14:10:47;;;;;;;5.25;3.47;;;;;;;29.29;38.66;100502.96;1697739;84;22162;-77
2023/08/13 14:13:53;;;;;;;8.63;3.77;;;;;;;29.29;37.76;100513.66;1698215;84;21325;-77
2023/08/13 14:16:59;;;;;;;4.00;2.72;;;;;;;29.18;37.75;100505.61;1698351;84;21328;-77
2023/08/13 14:20:08;;;;;;;11.78;3.10;;;;;;;29.17;37.70;100506.72;1681728;84;21362;-77